createdAt,value
2023-02-09T09:38:40.536Z,1.00
2023-02-09T09:39:42.605Z,1.00
2023-02-09T09:40:44.653Z,1.01
2023-02-09T09:41:46.682Z,1.03
2023-02-09T09:42:48.713Z,1.04
2023-02-09T09:43:50.745Z,1.09
2023-02-09T09:44:52.786Z,1.09
2023-02-09T09:45:54.871Z,1.09
2023-02-09T09:46:56.887Z,1.09
2023-02-09T09:47:58.917Z,1.07
2023-02-09T09:49:00.925Z,1.07
2023-02-09T09:50:02.949Z,1.04
2023-02-09T09:51:05.007Z,1.12
2023-02-09T09:52:07.019Z,1.16
2023-02-09T09:53:09.052Z,1.19
2023-02-09T09:54:11.083Z,1.26
2023-02-09T09:55:13.095Z,1.28
2023-02-09T09:56:15.120Z,1.32
2023-02-09T09:57:17.152Z,1.28
2023-02-09T09:58:19.209Z,1.30
2023-02-09T09:59:21.235Z,1.38
2023-02-09T10:00:23.304Z,1.35
2023-02-09T10:01:25.355Z,1.42
2023-02-09T10:02:27.367Z,1.44
2023-02-09T10:03:29.395Z,1.50
2023-02-09T10:04:31.501Z,1.44
2023-02-09T10:05:33.520Z,1.45
2023-02-09T10:06:36.315Z,1.45
2023-02-09T10:07:37.215Z,1.50
2023-02-09T10:08:39.246Z,1.52
2023-02-09T10:09:41.257Z,1.55
2023-02-09T10:10:43.519Z,1.60
2023-02-09T10:11:44.553Z,1.63
2023-02-09T10:12:46.612Z,1.66
2023-02-09T10:13:48.651Z,1.67
2023-02-09T10:14:50.678Z,1.71
2023-02-09T10:15:52.715Z,1.74
2023-02-09T10:16:54.779Z,1.76
2023-02-09T10:17:56.817Z,1.71
2023-02-09T10:18:58.847Z,1.77
2023-02-09T10:20:00.876Z,1.80
2023-02-09T10:21:02.915Z,1.80
2023-02-09T10:22:04.956Z,1.74
2023-02-09T10:23:06.987Z,1.71
2023-02-09T10:24:09.020Z,1.74
2023-02-09T10:25:11.030Z,1.87
2023-02-09T10:26:13.055Z,1.94
2023-02-09T10:27:15.092Z,1.94
2023-02-09T10:28:17.146Z,2.03
2023-02-09T10:29:19.141Z,2.10
2023-02-09T10:30:21.152Z,2.12
2023-02-09T10:31:23.355Z,2.19
2023-02-09T10:32:24.361Z,2.24
2023-02-09T10:33:26.368Z,2.27
2023-02-09T10:34:28.398Z,2.32
2023-02-09T10:35:30.423Z,2.41
2023-02-09T10:36:32.460Z,2.37
2023-02-09T10:37:34.549Z,2.43
2023-02-09T10:38:36.540Z,2.52
2023-02-09T10:39:38.549Z,2.52
2023-02-09T10:40:40.578Z,2.48
2023-02-09T10:41:42.607Z,2.49
2023-02-09T10:42:44.650Z,2.50
2023-02-09T10:43:46.666Z,2.59
2023-02-09T10:44:48.695Z,2.86
2023-02-09T10:45:50.752Z,3.62
2023-02-09T10:46:52.751Z,4.98
2023-02-09T10:47:54.789Z,6.11
2023-02-09T10:48:56.842Z,7.03
2023-02-09T10:49:59.139Z,7.48
2023-02-09T10:51:00.065Z,7.94
2023-02-09T10:52:02.048Z,8.52
2023-02-09T10:53:04.089Z,9.06
2023-02-09T10:54:06.116Z,9.75
2023-02-09T10:55:08.157Z,10.49
2023-02-09T10:56:10.176Z,10.52
2023-02-09T10:57:12.199Z,9.47
2023-02-09T10:58:14.248Z,9.12
2023-02-09T10:59:16.268Z,8.87
2023-02-09T11:00:18.474Z,9.55
2023-02-09T11:01:19.500Z,10.05
2023-02-09T11:02:21.553Z,10.60
2023-02-09T11:03:23.617Z,11.40
2023-02-09T11:04:25.723Z,11.81
2023-02-09T11:05:27.759Z,12.39
2023-02-09T11:06:29.827Z,12.87
2023-02-09T11:07:32.041Z,13.33
2023-02-09T11:08:34.080Z,12.87
2023-02-09T11:09:36.136Z,12.72
2023-02-09T11:10:38.212Z,12.98
2023-02-09T11:11:40.272Z,13.11
2023-02-09T11:12:42.298Z,13.16
2023-02-09T11:13:44.450Z,13.03
2023-02-09T11:14:46.498Z,12.85
2023-02-09T11:15:48.861Z,13.09
2023-02-09T11:16:49.927Z,13.45
2023-02-09T11:17:51.980Z,13.69
2023-02-09T11:18:54.032Z,13.61
2023-02-09T11:19:56.075Z,13.82
2023-02-09T11:20:58.107Z,14.23
2023-02-09T11:22:00.142Z,14.40
2023-02-09T11:23:02.166Z,14.53
2023-02-09T11:24:04.219Z,14.22
2023-02-09T11:25:06.263Z,14.35
2023-02-09T11:26:17.560Z,13.84
2023-02-09T11:27:09.675Z,13.80
2023-02-09T11:28:11.743Z,13.78
2023-02-09T11:29:13.782Z,13.69
2023-02-09T11:30:15.815Z,12.94
2023-02-09T11:31:18.069Z,12.59
2023-02-09T11:32:19.047Z,12.19
2023-02-09T11:33:21.105Z,12.54
2023-02-09T11:34:25.427Z,12.80
2023-02-09T11:35:24.918Z,13.09
2023-02-09T11:36:26.966Z,12.98
2023-02-09T11:37:28.994Z,13.23
2023-02-09T11:38:31.054Z,13.41
2023-02-09T11:39:33.114Z,13.89
2023-02-09T11:40:35.136Z,13.96
2023-02-09T11:41:37.169Z,14.23
2023-02-09T11:42:39.216Z,14.60
2023-02-09T11:43:41.288Z,15.13
2023-02-09T11:44:43.322Z,14.96
2023-02-09T11:45:45.352Z,14.68
2023-02-09T11:46:47.430Z,14.55
2023-02-09T11:47:49.491Z,14.58
2023-02-09T11:48:51.517Z,14.47
2023-02-09T11:49:53.560Z,14.12
2023-02-09T11:50:55.603Z,14.25
2023-02-09T11:51:57.653Z,14.41
2023-02-09T11:52:59.757Z,14.83
2023-02-09T11:54:01.792Z,14.70
2023-02-09T11:55:03.858Z,14.55
2023-02-09T11:56:05.949Z,14.32
2023-02-09T11:57:08.026Z,14.20
2023-02-09T11:58:10.081Z,14.29
2023-02-09T11:59:12.153Z,13.28
2023-02-09T12:00:14.182Z,12.30
2023-02-09T12:01:17.007Z,12.09
2023-02-09T12:02:18.119Z,12.27
2023-02-09T12:03:20.158Z,12.72
2023-02-09T12:04:22.192Z,12.94
2023-02-09T12:05:24.236Z,13.01
2023-02-09T12:06:26.320Z,13.53
2023-02-09T12:07:28.328Z,13.88
2023-02-09T12:08:30.375Z,14.18
2023-02-09T12:09:32.400Z,14.40
2023-02-09T12:10:34.482Z,14.41
2023-02-09T12:11:36.508Z,14.35
2023-02-09T12:12:38.546Z,14.33
2023-02-09T12:13:40.582Z,13.84
2023-02-09T12:14:42.634Z,12.78
2023-02-09T12:15:44.689Z,11.87
2023-02-09T12:16:46.708Z,11.16
2023-02-09T12:17:48.827Z,10.33
2023-02-09T12:18:50.873Z,9.53
2023-02-09T12:19:52.971Z,8.92
2023-02-09T12:20:55.024Z,8.12
2023-02-09T12:21:57.062Z,7.48
2023-02-09T12:22:59.091Z,6.84
2023-02-09T12:24:01.135Z,6.51
2023-02-09T12:25:03.127Z,6.12
2023-02-09T12:26:05.144Z,5.89
2023-02-09T12:27:07.153Z,5.40
2023-02-09T12:28:09.249Z,5.24
2023-02-09T12:29:11.354Z,4.98
2023-02-09T12:30:13.416Z,4.85
2023-02-09T12:31:15.487Z,4.68
2023-02-09T12:32:17.543Z,4.62
2023-02-09T12:33:19.589Z,4.52
2023-02-09T12:34:21.670Z,4.50
2023-02-09T12:35:23.673Z,4.44
2023-02-09T12:36:25.762Z,4.35
2023-02-09T12:37:28.634Z,4.28
2023-02-09T12:38:29.889Z,4.24
2023-02-09T12:39:31.901Z,4.22
2023-02-09T12:40:33.910Z,4.20
2023-02-09T12:41:36.024Z,4.16
2023-02-09T12:42:38.053Z,4.12
2023-02-09T12:43:40.075Z,4.05
2023-02-09T12:44:42.177Z,3.98
2023-02-09T12:45:44.682Z,3.93
2023-02-09T12:46:45.838Z,3.87
2023-02-09T12:47:47.858Z,3.85
2023-02-09T12:48:49.881Z,3.85
2023-02-09T12:49:51.906Z,3.85
2023-02-09T12:50:53.969Z,3.82
2023-02-09T12:51:55.979Z,3.83
2023-02-09T12:52:58.014Z,3.83
2023-02-09T12:54:00.024Z,3.82
2023-02-09T12:55:02.051Z,3.75
2023-02-09T12:56:04.086Z,3.72
2023-02-09T12:57:06.127Z,3.69
2023-02-09T12:58:08.163Z,3.67
2023-02-09T12:59:10.194Z,3.62
2023-02-09T13:00:12.202Z,3.64
2023-02-09T13:01:14.319Z,3.64
2023-02-09T13:02:16.365Z,3.65
2023-02-09T13:03:18.382Z,3.62
2023-02-09T13:04:20.426Z,3.62
2023-02-09T13:05:22.429Z,3.68
2023-02-09T13:06:24.472Z,3.65
2023-02-09T13:07:26.509Z,3.62
2023-02-09T13:08:28.542Z,3.67
2023-02-09T13:09:30.535Z,3.68
2023-02-09T13:10:32.576Z,3.64
2023-02-09T13:11:34.600Z,3.68
2023-02-09T13:12:36.641Z,3.68
2023-02-09T13:13:38.670Z,3.68
2023-02-09T13:14:40.696Z,3.67
2023-02-09T13:15:42.709Z,3.67
2023-02-09T13:16:44.757Z,3.65
2023-02-09T13:17:46.770Z,3.64
2023-02-09T13:18:48.783Z,3.62
2023-02-09T13:19:50.821Z,3.64
2023-02-09T13:20:52.830Z,3.67
2023-02-09T13:21:54.841Z,3.64
2023-02-09T13:22:56.882Z,3.64
2023-02-09T13:23:58.916Z,3.67
2023-02-09T13:25:00.997Z,3.65
2023-02-09T13:26:02.977Z,3.69
2023-02-09T13:27:05.017Z,3.69
2023-02-09T13:28:07.098Z,3.69
2023-02-09T13:29:19.889Z,3.69
2023-02-09T13:30:10.534Z,3.73
2023-02-09T13:31:12.587Z,3.72
2023-02-09T13:32:14.588Z,3.68
2023-02-09T13:33:16.638Z,3.72
2023-02-09T13:34:18.639Z,3.68
2023-02-09T13:35:21.648Z,3.72
2023-02-09T13:36:25.090Z,3.73
2023-02-09T13:37:23.994Z,3.73
2023-02-09T13:38:27.838Z,3.73
2023-02-09T13:39:27.696Z,3.69
2023-02-09T13:40:29.761Z,3.73
2023-02-09T13:41:31.848Z,3.73
2023-02-09T13:42:33.899Z,3.76
2023-02-09T13:43:35.989Z,3.75
2023-02-09T13:44:38.047Z,3.75
2023-02-09T13:45:40.073Z,3.79
2023-02-09T13:46:42.090Z,3.79
2023-02-09T13:47:44.196Z,3.80
2023-02-09T13:48:46.180Z,3.80
2023-02-09T13:49:48.229Z,3.80
2023-02-09T13:50:50.318Z,3.76
2023-02-09T13:51:52.350Z,3.75
2023-02-09T13:52:54.389Z,3.75
2023-02-09T13:53:56.444Z,3.76
2023-02-09T13:54:58.468Z,3.73
2023-02-09T13:56:00.689Z,3.72
2023-02-09T13:57:01.734Z,3.68
2023-02-09T13:58:03.805Z,3.65
2023-02-09T13:59:05.809Z,3.62
2023-02-09T14:00:07.926Z,3.58
2023-02-09T14:01:09.996Z,3.57
2023-02-09T14:02:12.002Z,3.54
2023-02-09T14:03:14.215Z,3.46
2023-02-09T14:04:15.167Z,3.43
2023-02-09T14:05:17.187Z,3.39
2023-02-09T14:06:19.208Z,3.32
2023-02-09T14:07:21.233Z,3.31
2023-02-09T14:08:23.255Z,3.31
2023-02-09T14:09:25.292Z,3.31
2023-02-09T14:10:27.322Z,3.37
2023-02-09T14:11:41.459Z,3.43
2023-02-09T14:12:30.792Z,3.41
2023-02-09T14:13:32.828Z,3.40
2023-02-09T14:14:34.849Z,3.40
2023-02-09T14:15:36.883Z,3.40
2023-02-09T14:16:51.613Z,3.41
2023-02-09T14:17:40.372Z,3.43
2023-02-09T14:18:42.372Z,3.46
2023-02-09T14:19:44.599Z,3.50
2023-02-09T14:20:45.517Z,3.57
2023-02-09T14:21:47.537Z,3.55
2023-02-09T14:22:49.573Z,3.55
2023-02-09T14:23:51.602Z,3.52
2023-02-09T14:24:53.641Z,3.50
2023-02-09T14:25:55.670Z,3.46
2023-02-09T14:26:57.745Z,3.46
2023-02-09T14:27:59.818Z,3.41
2023-02-09T14:29:01.815Z,3.40
2023-02-09T14:30:03.903Z,3.39
2023-02-09T14:31:05.990Z,3.40
2023-02-09T14:32:08.050Z,3.34
2023-02-09T14:33:10.085Z,3.34
2023-02-09T14:34:12.604Z,3.36
2023-02-09T14:35:13.509Z,3.32
2023-02-09T14:36:15.516Z,3.34
2023-02-09T14:37:17.519Z,3.29
2023-02-09T14:38:19.534Z,3.31
2023-02-09T14:39:21.554Z,3.26
2023-02-09T14:40:23.664Z,3.26
2023-02-09T14:41:25.702Z,3.23
2023-02-09T14:42:27.711Z,3.25
2023-02-09T14:43:29.741Z,3.19
2023-02-09T14:44:31.760Z,3.22
2023-02-09T14:45:33.826Z,3.21
2023-02-09T14:46:35.870Z,3.19
2023-02-09T14:47:37.891Z,3.22
2023-02-09T14:48:39.950Z,3.23
2023-02-09T14:49:41.987Z,3.19
2023-02-09T14:50:44.053Z,3.21
2023-02-09T14:51:46.081Z,3.21
2023-02-09T14:52:48.134Z,3.19
2023-02-09T14:53:50.157Z,3.11
2023-02-09T14:54:52.187Z,3.14
2023-02-09T14:55:54.231Z,3.16
2023-02-09T14:56:58.011Z,3.16
2023-02-09T14:57:58.527Z,3.19
2023-02-09T14:59:00.539Z,3.19
2023-02-09T15:00:02.706Z,3.23
2023-02-09T15:01:04.796Z,3.29
2023-02-09T15:02:06.793Z,3.31
2023-02-09T15:03:08.823Z,3.32
2023-02-09T15:04:10.879Z,3.34
2023-02-09T15:05:12.898Z,3.34
2023-02-09T15:06:14.937Z,3.32
2023-02-09T15:07:16.960Z,3.31
2023-02-09T15:08:18.979Z,3.32
2023-02-09T15:09:21.011Z,3.32
2023-02-09T15:10:23.046Z,3.32
2023-02-09T15:11:25.060Z,3.31
2023-02-09T15:12:27.109Z,3.29
2023-02-09T15:13:29.125Z,3.29
2023-02-09T15:14:31.126Z,3.29
2023-02-09T15:15:33.199Z,3.31
2023-02-09T15:16:35.217Z,3.31
2023-02-09T15:17:37.231Z,3.36
2023-02-09T15:18:40.118Z,3.32
2023-02-09T15:19:41.167Z,3.28
2023-02-09T15:20:43.184Z,3.31
2023-02-09T15:21:50.681Z,3.28
2023-02-09T15:22:46.651Z,3.22
2023-02-09T15:23:48.683Z,3.18
2023-02-09T15:24:51.830Z,3.14
2023-02-09T15:25:52.023Z,3.11
2023-02-09T15:26:54.081Z,3.11
2023-02-09T15:27:56.111Z,3.05
2023-02-09T15:28:58.109Z,3.05
2023-02-09T15:30:02.999Z,3.01
2023-02-09T15:31:01.835Z,3.00
2023-02-09T15:32:03.839Z,2.90
2023-02-09T15:33:05.846Z,2.89
2023-02-09T15:34:07.879Z,2.87
2023-02-09T15:35:09.912Z,2.86
2023-02-09T15:36:11.948Z,2.86
2023-02-09T15:37:13.985Z,2.86
2023-02-09T15:38:16.023Z,2.83
2023-02-09T15:39:18.067Z,2.80
2023-02-09T15:40:20.110Z,2.80
2023-02-09T15:41:22.134Z,2.77
2023-02-09T15:42:24.182Z,2.77
2023-02-09T15:43:26.195Z,2.72
2023-02-09T15:44:28.229Z,2.68
2023-02-09T15:45:30.249Z,2.66
2023-02-09T15:46:32.404Z,2.61
2023-02-09T15:47:34.464Z,2.63
2023-02-09T15:48:36.487Z,2.60
2023-02-09T15:49:38.491Z,2.52
2023-02-09T15:50:40.512Z,2.48
2023-02-09T15:51:42.546Z,2.43
2023-02-09T15:52:44.588Z,2.41
2023-02-09T15:53:46.604Z,2.34
2023-02-09T15:54:48.601Z,2.34
2023-02-09T15:55:50.637Z,2.28
2023-02-09T15:56:52.665Z,2.25
2023-02-09T15:57:54.708Z,2.23
2023-02-09T15:58:56.740Z,2.14
2023-02-09T15:59:58.750Z,2.13
2023-02-09T16:01:00.781Z,2.07
2023-02-09T16:02:02.909Z,1.98
2023-02-09T16:03:04.973Z,1.98
2023-02-09T16:04:14.891Z,1.99
2023-02-09T16:05:08.440Z,1.95
2023-02-09T16:06:11.063Z,1.91
2023-02-09T16:07:11.959Z,1.77
2023-02-09T16:08:13.978Z,1.74
2023-02-09T16:09:15.992Z,1.73
2023-02-09T16:10:18.023Z,1.67
2023-02-09T16:11:20.038Z,1.67
2023-02-09T16:12:22.070Z,1.62
2023-02-09T16:13:24.114Z,1.58
2023-02-09T16:14:26.144Z,1.49
